< < Back
Terminal Aerodrome Forecast


Current Version              Previous Versions:   1  2  3  4  5  6  7  8  9  

Terminal Aerodrome Forecast

124
FTUS42 KGSP 292339
TAFCLT
TAF
KCLT 292339Z 3000/3024 VRB06KT P6SM VCSH BKN060
     FM300200 18004KT P6SM SCT060 BKN120
     FM301000 07004KT P6SM FEW060 SCT120
     FM301700 14005KT P6SM FEW050 BKN070 PROB30 3019/3024 4SM -TSRA
      OVC035CB=

Latest METAR

346
SAUS70 KWBC 300456
MTRCLT
METAR KCLT 300452Z 12006KT 4SM +RA BR SCT055 BKN080 OVC110 22/19 A3002
RMK AO2 RAB23 SLP154 P0011 T02170194 403330178


USA.gov is the U.S. government's official web portal to all federal, state and local government web resources and services.